Latest Weather Observations for Cocos Island

IDW60801

Issued at 8:05 pm WST Friday 24 October 2014 (issued every 30 minutes, with the page automatically refreshed every 10 minutes)

About weather observations | Map of weather stations | Latest weather observations for WA | Other Formats
Station Details ID: 200284 Name: COCOS ISLAND AIRPORT Lat: -12.19 Lon: 96.83 Height: 3.0 m
Data from the previous 72 hours. | See also: Recent months at Cocos Island
Date/Time
WST
Temp
°C
App
Temp
°C
Dew
Point
Rel
Hum
%
Delta-T
°C
Wind Press
QNH
hPa
Press
MSL
hPa
Rain
since 9 am
mm
Dir
 
Spd
km/h
Gust
km/h
Spd
kts
Gust
kts
24/08:00pm 26.9 27.1 23.4 81 2.4 E 28 32 15 17 1012.5 1012.5 0.0
24/07:30pm 27.0 26.7 23.2 80 2.6 E 30 35 16 19 1012.3 - 0.0
24/07:00pm 27.0 26.7 23.2 80 2.6 E 30 35 16 19 1012.2 - 0.0
24/06:30pm 27.2 26.5 23.2 79 2.7 E 32 37 17 20 1011.8 - 0.0
24/06:00pm 26.8 26.9 23.9 84 2.0 E 30 37 16 20 1011.4 - 0.0
24/05:30pm 27.5 27.6 23.3 78 2.9 E 28 35 15 19 1011.4 - 0.0
24/05:00pm 27.6 27.8 23.5 78 2.8 E 28 35 15 19 1011.3 1011.3 0.0
24/04:30pm 28.2 27.8 23.1 74 3.5 E 30 37 16 20 1011.6 - 0.0
24/04:00pm 28.1 27.8 23.3 75 3.3 E 30 39 16 21 1011.7 - 0.0
24/03:30pm 28.1 28.4 23.6 76 3.1 E 28 35 15 19 1012.0 - 0.0
24/03:00pm 28.6 28.4 24.0 76 3.2 E 32 37 17 20 1012.1 - 0.0
24/02:30pm 28.5 28.4 23.6 75 3.4 E 30 37 16 20 1012.3 - 0.0
24/02:00pm 28.1 28.4 23.6 76 3.1 E 28 35 15 19 1012.7 1012.7 0.0
24/01:30pm 28.3 28.1 24.0 77 3.0 E 32 39 17 21 1013.3 - 0.0
24/01:00pm 28.1 28.3 23.4 75 3.2 E 28 35 15 19 1013.7 - 0.0
24/12:30pm 28.3 28.4 23.3 74 3.4 E 28 33 15 18 1014.0 - 0.0
24/12:00pm 27.9 27.9 23.1 75 3.3 E 28 33 15 18 1014.1 - 0.0
24/11:30am 27.6 27.6 23.0 76 3.1 E 28 35 15 19 1014.0 - 0.0
24/11:00am 27.7 27.5 22.8 74 3.3 E 28 32 15 17 1014.1 1014.1 0.0
24/10:30am 27.4 28.0 22.8 76 3.1 E 24 28 13 15 1014.1 - 0.0
24/10:00am 27.0 27.2 22.7 77 2.9 E 26 30 14 16 1014.2 - 0.0
24/09:30am 26.9 26.3 22.0 74 3.3 E 28 30 15 16 1014.2 - 0.0
24/09:00am 26.6 26.5 22.3 77 2.9 E 26 32 14 17 1013.9 - 0.0
24/08:30am 26.4 25.5 22.2 78 2.8 E 30 33 16 18 1013.7 - 0.0
24/08:00am 26.2 26.0 22.0 77 2.8 E 26 32 14 17 1013.4 1013.4 0.0
24/07:30am 26.0 25.7 21.8 77 2.8 E 26 32 14 17 1013.4 - 0.0
24/07:00am 25.9 26.2 22.2 80 2.5 E 24 30 13 16 1013.2 - 0.0
24/06:30am 25.9 25.7 22.0 79 2.6 E 26 32 14 17 1012.8 - 0.0
24/06:00am 25.8 26.8 22.8 83 2.0 E 22 30 12 16 1012.7 - 0.0
24/05:30am 25.8 26.2 22.5 82 2.2 E 24 30 13 16 1012.6 - 0.0
24/05:00am 25.7 26.8 22.3 81 2.3 E 20 24 11 13 1012.4 1012.4 0.0
24/04:30am 25.6 26.7 22.0 80 2.4 E 19 24 10 13 1012.5 - 0.0
24/04:00am 25.7 26.7 22.1 80 2.4 E 20 28 11 15 1012.5 - 0.0
24/03:30am 25.7 26.7 22.1 80 2.4 E 20 28 11 15 1012.7 - 0.0
24/03:00am 25.7 27.1 22.6 83 2.1 E 19 26 10 14 1013.0 - 0.0
24/02:30am 25.8 26.9 21.9 79 2.6 ESE 19 28 10 15 1013.4 - 0.0
24/02:00am 25.8 26.8 22.2 80 2.4 ESE 20 26 11 14 1013.7 1013.7 0.0
24/01:30am 25.9 26.8 22.0 79 2.6 ESE 20 26 11 14 1013.9 - 0.0
24/01:00am 26.1 26.9 22.5 80 2.4 ESE 22 28 12 15 1014.2 - 0.0
24/12:30am 26.2 26.6 22.5 80 2.5 ESE 24 30 13 16 1014.5 - 0.0
24/12:00am 26.2 27.1 22.6 80 2.4 ESE 22 30 12 16 1014.8 - 0.0
 
Date/Time
WST
Temp
°C
App
Temp
°C
Dew
Point
Rel
Hum
%
Delta-T
°C
Wind Press
QNH
hPa
Press
MSL
hPa
Rain
since 9 am
mm
Dir
 
Spd
km/h
Gust
km/h
Spd
kts
Gust
kts
23/11:30pm 26.4 27.4 22.9 81 2.4 ESE 22 30 12 16 1014.9 - 0.0
23/11:00pm 26.3 27.6 22.7 80 2.4 ESE 20 28 11 15 1014.7 1014.7 0.0
23/10:30pm 26.3 27.6 22.6 80 2.5 ESE 20 28 11 15 1014.4 - 0.0
23/10:00pm 26.3 27.1 22.4 79 2.6 ESE 22 30 12 16 1014.2 - 0.0
23/09:30pm 26.5 27.2 22.3 78 2.8 ESE 22 30 12 16 1014.1 - 0.0
23/09:00pm 26.5 27.6 23.0 81 2.4 ESE 22 32 12 17 1013.8 - 0.0
23/08:30pm 26.7 27.2 22.6 78 2.8 ESE 24 32 13 17 1013.7 - 0.0
23/08:00pm 26.6 26.8 22.1 76 3.0 ESE 24 32 13 17 1013.5 1013.5 0.0
23/07:30pm 26.6 27.3 22.9 80 2.5 ESE 24 32 13 17 1013.3 - 0.0
23/07:00pm 26.8 26.4 22.3 76 3.0 ESE 28 33 15 18 1012.9 - 0.0
23/06:30pm 27.2 27.5 22.9 77 2.9 ESE 26 32 14 17 1012.6 - 0.0
23/06:00pm 27.4 27.6 22.8 76 3.1 SE 26 33 14 18 1012.5 - 0.0
23/05:30pm 27.5 27.2 22.5 74 3.4 ESE 28 35 15 19 1012.4 - 0.0
23/05:00pm 27.7 27.5 22.7 74 3.4 ESE 28 35 15 19 1012.5 1012.5 0.0
23/04:30pm 28.1 28.3 22.8 73 3.6 ESE 26 35 14 19 1012.8 - 0.0
23/04:00pm 28.3 28.4 23.2 74 3.5 ESE 28 39 15 21 1013.0 - 0.0
23/03:30pm 28.4 28.9 23.9 76 3.1 SE 28 37 15 20 1013.2 - 0.0
23/03:00pm 28.1 28.4 23.6 76 3.1 ESE 28 35 15 19 1013.4 - 0.0
23/02:30pm 27.8 27.3 22.8 74 3.4 SE 30 39 16 21 1013.8 - 0.0
23/02:00pm 27.7 27.4 23.3 77 3.0 SE 30 37 16 20 1014.3 1014.3 0.0
23/01:30pm 28.4 27.8 22.7 71 3.9 ESE 30 41 16 22 1014.7 - 0.0
23/01:00pm 27.8 26.6 22.2 71 3.8 ESE 32 41 17 22 1015.0 - 0.0
23/12:30pm 28.3 27.6 23.2 74 3.5 ESE 32 41 17 22 1015.1 - 0.0
23/12:00pm 28.0 27.0 22.0 70 4.0 ESE 30 41 16 22 1015.4 - 0.0
23/11:30am 27.6 26.1 22.1 72 3.7 ESE 33 41 18 22 1015.6 - 0.0
23/11:00am 27.2 26.0 22.3 74 3.3 ESE 32 43 17 23 1015.9 1015.9 0.6
23/10:30am 27.2 26.5 21.8 72 3.6 ESE 28 37 15 20 1016.0 - 0.6
23/10:00am 26.7 26.6 22.9 79 2.6 SE 28 37 15 20 1015.8 - 0.6
23/09:30am 25.5 24.7 23.0 86 1.7 ESE 32 41 17 22 1015.6 - 0.6
23/09:00am 26.1 25.6 22.1 78 2.7 ESE 28 39 15 21 1015.4 - 0.4
23/08:27am 25.8 25.5 22.5 82 2.2 SE 28 37 15 20 1015.0 - 0.4
23/08:00am 25.8 25.3 22.1 80 2.5 SE 28 39 15 21 1014.7 1014.7 0.2
23/07:30am 25.8 25.6 22.1 80 2.5 SE 26 35 14 19 1014.2 - 0.2
23/07:00am 25.8 25.8 22.4 81 2.3 SE 26 35 14 19 1014.0 - 0.2
23/06:30am 25.8 25.3 22.2 80 2.4 SE 28 37 15 20 1013.9 - 0.2
23/06:00am 25.9 25.5 22.3 80 2.4 SE 28 33 15 18 1013.9 - 0.2
23/05:30am 25.8 25.8 22.4 81 2.3 SE 26 33 14 18 1013.9 - 0.2
23/05:00am 25.8 25.3 22.2 80 2.4 ESE 28 33 15 18 1013.9 1013.9 0.2
23/04:30am 25.9 26.0 22.5 81 2.3 SE 26 33 14 18 1014.0 - 0.2
23/04:00am 25.9 25.6 22.5 81 2.3 SE 28 35 15 19 1014.2 - 0.2
23/03:30am 25.9 25.8 22.3 80 2.4 SE 26 33 14 18 1014.5 - 0.2
23/03:00am 25.9 25.8 22.2 80 2.5 SE 26 33 14 18 1014.9 - 0.2
23/02:45am 25.7 25.7 22.4 82 2.2 SE 26 32 14 17 1015.1 - 0.2
23/02:30am 25.2 25.2 23.1 88 1.4 SE 28 39 15 21 1015.2 - 0.2
23/02:25am 25.4 25.4 23.0 86 1.6 SE 28 39 15 21 1015.2 - 0.0
23/02:00am 25.9 25.5 22.3 80 2.4 SE 28 33 15 18 1015.3 1015.3 0.0
23/01:30am 26.1 25.7 22.4 80 2.5 SE 28 35 15 19 1015.5 - 0.0
23/01:00am 26.1 25.6 22.2 79 2.6 SE 28 37 15 20 1016.0 - 0.0
23/12:30am 26.1 25.9 22.7 81 2.3 SE 28 33 15 18 1016.2 - 0.0
23/12:00am 26.1 26.3 22.8 82 2.2 SE 26 33 14 18 1016.3 - 0.0
 
Date/Time
WST
Temp
°C
App
Temp
°C
Dew
Point
Rel
Hum
%
Delta-T
°C
Wind Press
QNH
hPa
Press
MSL
hPa
Rain
since 9 am
mm
Dir
 
Spd
km/h
Gust
km/h
Spd
kts
Gust
kts
22/11:30pm 26.3 26.4 22.6 80 2.5 SE 26 33 14 18 1016.4 - 0.0
22/11:00pm 26.3 26.5 22.7 80 2.4 SE 26 35 14 19 1016.4 1016.4 0.0
22/10:30pm 26.4 25.9 22.2 78 2.8 SE 28 39 15 21 1016.1 - 0.0
22/10:00pm 26.4 26.2 22.7 80 2.5 SE 28 33 15 18 1016.0 - 0.0
22/09:30pm 26.5 26.3 22.8 80 2.5 SE 28 37 15 20 1015.9 - 0.0
22/09:00pm 26.5 26.1 23.0 81 2.4 SE 30 35 16 19 1015.6 - 0.0
22/08:30pm 26.7 26.4 23.2 81 2.4 SE 30 37 16 20 1015.3 - 0.0
22/08:00pm 26.7 26.4 23.2 81 2.4 SE 30 39 16 21 1014.9 1014.9 0.0
22/07:30pm 26.8 26.8 23.0 79 2.6 ESE 28 37 15 20 1014.7 - 0.0
22/07:00pm 26.9 26.8 22.9 79 2.7 ESE 28 37 15 20 1014.5 - 0.0
22/06:30pm 27.0 27.1 23.2 80 2.6 ESE 28 37 15 20 1014.3 - 0.0
22/06:00pm 27.3 26.7 22.6 75 3.2 ESE 30 37 16 20 1014.0 - 0.0
22/05:30pm 27.5 27.1 23.1 77 3.0 ESE 30 37 16 20 1013.8 - 0.0
22/05:00pm 27.7 27.3 23.0 75 3.2 ESE 30 37 16 20 1013.9 1013.9 0.0
22/04:30pm 28.1 28.1 23.0 74 3.5 ESE 28 35 15 19 1014.1 - 0.0
22/04:00pm 28.2 28.0 22.8 72 3.7 ESE 28 35 15 19 1014.2 - 0.0
22/03:30pm 28.1 28.4 23.6 76 3.1 ESE 28 37 15 20 1014.3 - 0.0
22/03:00pm 28.6 28.0 23.3 73 3.6 ESE 32 41 17 22 1014.4 - 0.0
22/02:30pm 28.3 27.6 23.2 74 3.5 ESE 32 41 17 22 1014.7 - 0.0
22/02:00pm 28.2 27.6 23.4 75 3.3 ESE 32 39 17 21 1015.0 1015.0 0.0
22/01:30pm 28.7 28.8 23.9 75 3.3 ESE 30 35 16 19 1015.5 - 0.0
22/01:00pm 28.5 27.8 23.2 73 3.6 ESE 32 43 17 23 1015.8 - 0.0
22/12:30pm 28.3 28.0 23.2 74 3.5 ESE 30 39 16 21 1016.1 - 0.0
22/12:00pm 28.5 28.1 23.1 72 3.7 ESE 30 39 16 21 1016.2 - 0.0
22/11:30am 28.0 28.5 23.3 75 3.2 ESE 26 35 14 19 1016.6 - 0.0
22/11:00am 27.3 27.2 22.9 77 3.0 ESE 28 39 15 21 1016.5 1016.5 0.0
22/10:30am 27.4 27.2 22.8 76 3.1 ESE 28 37 15 20 1016.4 - 0.0
22/10:00am 27.5 27.3 22.8 75 3.2 ESE 28 35 15 19 1016.2 - 0.0
22/09:30am 26.6 26.7 22.6 78 2.7 ESE 26 33 14 18 1016.2 - 0.0
22/09:00am 26.4 26.6 22.7 80 2.5 ESE 26 32 14 17 1015.8 - 0.0
22/08:30am 26.3 26.7 22.4 79 2.6 ESE 24 35 13 19 1015.3 - 0.0
22/08:00am 26.3 26.0 22.6 80 2.5 ESE 28 37 15 20 1014.5 1014.5 0.0
22/07:30am 26.1 25.4 22.5 80 2.4 ESE 30 37 16 20 1014.0 - 0.0
22/07:00am 26.0 25.4 22.6 81 2.3 ESE 30 39 16 21 1013.8 - 0.0
22/06:30am 25.9 25.7 22.8 83 2.1 ESE 28 39 15 21 1013.5 - 0.0
22/06:00am 26.0 26.7 22.9 83 2.1 ESE 24 32 13 17 1013.3 - 0.0
22/05:30am 26.0 25.6 22.4 80 2.4 ESE 28 35 15 19 1013.2 - 0.0
22/05:00am 26.0 26.5 22.7 82 2.2 ESE 24 39 13 21 1013.2 1013.2 0.0
22/04:30am 26.0 26.7 22.9 83 2.1 ESE 24 32 13 17 1013.6 - 0.0
22/04:00am 26.1 25.9 22.8 82 2.2 ESE 28 35 15 19 1013.9 - 0.0
22/03:30am 26.1 26.8 23.0 83 2.1 ESE 24 33 13 18 1014.2 - 0.0
22/03:00am 26.1 25.9 22.8 82 2.2 ESE 28 35 15 19 1014.8 - 0.0
22/02:30am 26.1 26.6 22.7 81 2.3 ESE 24 30 13 16 1015.3 - 0.0
22/02:00am 26.2 27.0 23.1 83 2.1 ESE 24 30 13 16 1015.8 1015.8 0.0
22/01:30am 26.2 27.3 23.0 82 2.2 ESE 22 33 12 18 1016.2 - 0.0
22/01:00am 26.3 26.2 22.9 81 2.3 ESE 28 35 15 19 1016.5 - 0.0
22/12:30am 26.5 27.8 23.3 82 2.2 ESE 22 32 12 17 1016.9 - 0.0
22/12:00am 26.4 27.5 23.0 81 2.3 ESE 22 32 12 17 1016.9 - 0.0
 
Date/Time
WST
Temp
°C
App
Temp
°C
Dew
Point
Rel
Hum
%
Delta-T
°C
Wind Press
QNH
hPa
Press
MSL
hPa
Rain
since 9 am
mm
Dir
 
Spd
km/h
Gust
km/h
Spd
kts
Gust
kts
21/11:30pm 26.5 27.2 23.0 81 2.4 ESE 24 33 13 18 1016.8 - 0.0
21/11:00pm 26.7 27.3 23.5 82 2.2 ESE 26 33 14 18 1016.7 1016.7 0.0
21/10:30pm 26.7 27.5 23.2 81 2.4 ESE 24 32 13 17 1016.4 - 0.0
21/10:00pm 26.8 27.3 23.3 81 2.4 ESE 26 33 14 18 1016.0 - 0.0

Other Formats:

Comma delimited format used in spreadsheet applications
http://www.bom.gov.au/fwo/IDW60801/IDW60801.96996.axf

JavaScript Object Notation format (JSON) in row-major order
http://www.bom.gov.au/fwo/IDW60801/IDW60801.96996.json